This is the latest recevied weather packets stored in our database for station/object KC8JWT. If no packets are shown the sender has not sent any weather packets the latest 10 day(s).
| Time | Temp. | Humidity | Pressure | Rain* | Wind** | Luminosity | Snow |
|---|---|---|---|---|---|---|---|
| 1777351848 | 16.67° C | 83% | 1016.1 hPa | 4.83 mm | - | 0 W/m² | - |
| 1777351546 | 17.22° C | 77% | 1016.1 hPa | 4.32 mm | - | 0 W/m² | - |
| 1777351244 | 17.78° C | 73% | 1016.1 hPa | 3.05 mm | - | 0 W/m² | - |
| 1777350943 | 18.89° C | 68% | 1016 hPa | 1.78 mm | - | 0 W/m² | - |
| 1777350639 | 19.44° C | 63% | 1015.9 hPa | 0 mm | - | 0 W/m² | - |
| 1777350336 | 20° C | 59% | 1015.5 hPa | 0 mm | - | 0 W/m² | - |
| 1777350032 | 20.56° C | 57% | 1015.7 hPa | 0 mm | - | 0 W/m² | - |
| 1777349729 | 20.56° C | 54% | 1015 hPa | 0 mm | - | 0 W/m² | - |
| 1777349427 | 20.56° C | 53% | 1015.2 hPa | 0 mm | - | 0 W/m² | - |
| 1777349126 | 20.56° C | 51% | 1015 hPa | 0 mm | - | 0 W/m² | - |
| 1777348822 | 20.56° C | 51% | 1014.8 hPa | 0 mm | - | 0 W/m² | - |
| 1777348520 | 21.11° C | 51% | 1014.6 hPa | 0 mm | - | 0 W/m² | - |
| 1777348218 | 21.11° C | 50% | 1014.6 hPa | 0 mm | - | 0 W/m² | - |
| 1777347916 | 20.56° C | 50% | 1014.3 hPa | 0 mm | - | 0 W/m² | - |
| 1777347614 | 21.11° C | 52% | 1014.5 hPa | 0 mm | - | 0 W/m² | - |
| 1777347309 | 21.11° C | 50% | 1014.5 hPa | 0 mm | - | 0 W/m² | - |
| 1777347005 | 21.11° C | 50% | 1014.3 hPa | 0 mm | - | 0 W/m² | - |
| 1777346702 | 21.11° C | 51% | 1014.2 hPa | 0 mm | - | 0 W/m² | - |
| 1777346095 | 21.11° C | 50% | 1014 hPa | 0 mm | - | 0 W/m² | - |
| 1777345792 | 21.11° C | 51% | 1014.2 hPa | 0 mm | - | 0 W/m² | - |
| 1777345490 | 21.11° C | 51% | 1014 hPa | 0 mm | - | 0 W/m² | - |
| 1777345186 | 21.11° C | 51% | 1014.1 hPa | 0 mm | - | 0 W/m² | - |
| 1777344883 | 21.11° C | 51% | 1014.1 hPa | 0 mm | - | 0 W/m² | - |
| 1777344276 | 20° C | 61% | 1014.3 hPa | 0 mm | - | 0 W/m² | - |
| 1777343973 | 19.44° C | 61% | 1014.7 hPa | 0 mm | - | 0 W/m² | - |
* Rain latest hour (hover to see other rain measurements)
** Current wind speed in m/s (hover to see current wind gust speed)